Terminal Aerodrome Forecast
Issued by NWS Sioux Falls, SD

Home | Current Version | Previous Version | Text Only | Print | Product List | Glossary On
Versions: 1 2 3 4 5 6 7 8 9 10 11 12 13 14 15 16 17 18 19 20 21
000
FTUS43 KFSD 212320
TAFSUX
TAF
KSUX 212320Z 2200/2224 16014G20KT P6SM SKC
     FM220600 16015G22KT P6SM SCT120
     FM221100 16016G24KT P6SM OVC015
     FM222100 19015KT 5SM -RA OVC015=

USA.gov is the U.S. government's official web portal to all federal, state and local government web resources and services.